43.2°F
Current conditions from King Hill
Updated every 5 minutes
 
  Wednesday April 23, 2014

Station Historical Data
Daily Summary for March 11, 2012 Units:  Both    English   Metric
« Previous Day
Next Day »
Daily Weekly Monthly Yearly Custom
  High: Low: Average:
Temperature: 52.8 °F /  11.6 °C 28.5 °F /  -1.9 °C 39.7 °F /  4.3 °C
Dew Point: 29.8 °F /  -1.2 °C 16.2 °F /  -8.8 °C 22.8 °F /  -5.1 °C
Humidity: 63% 39% 51%
Wind Speed: 13.0mph /  20.9km/h - 6.6mph /  10.6km/h
Wind Gust: 22.0mph /  35.4km/h - -
Wind- - SSW
Pressure: 30.36 in /  1028 hPa 30.15 in /  1020.9 hPa -
Precipitation: 0.00 in /  0 mm    
Historical Graphs
 
 
Tabular Data for March 11, 2012
Time Temperature Dew Point Pressure Wind Wind Speed Wind Gust Humidity Daily Rainfall
00:00 29.7 °F /  -1.3 °C 18.6 °F /  -7.4 °C 30.36in /  1028hPa SW 5.0mph /  8km/h 14.0mph /  22.5km/h 63% 0.00in /  0mm
00:05 29.8 °F /  -1.2 °C 18.4 °F /  -7.6 °C 30.36in /  1028hPa SW 7.0mph /  11.3km/h 17.0mph /  27.4km/h 62% 0.00in /  0mm
00:10 29.8 °F /  -1.2 °C 18.4 °F /  -7.6 °C 30.36in /  1028hPa SSW 5.0mph /  8km/h 17.0mph /  27.4km/h 62% 0.00in /  0mm
00:15 29.8 °F /  -1.2 °C 18.0 °F /  -7.8 °C 30.36in /  1028hPa SW 7.0mph /  11.3km/h 16.0mph /  25.7km/h 61% 0.00in /  0mm
00:20 29.8 °F /  -1.2 °C 18.0 °F /  -7.8 °C 30.36in /  1028hPa SW 5.0mph /  8km/h 16.0mph /  25.7km/h 61% 0.00in /  0mm
00:30 29.8 °F /  -1.2 °C 17.6 °F /  -8 °C 30.36in /  1028hPa SSW 7.0mph /  11.3km/h 13.0mph /  20.9km/h 60% 0.00in /  0mm
00:35 29.7 °F /  -1.3 °C 17.9 °F /  -7.8 °C 30.36in /  1028hPa SSW 5.0mph /  8km/h 13.0mph /  20.9km/h 61% 0.00in /  0mm
00:40 29.6 °F /  -1.3 °C 17.8 °F /  -7.9 °C 30.35in /  1027.7hPa SSW 4.0mph /  6.4km/h 11.0mph /  17.7km/h 61% 0.00in /  0mm
00:45 29.5 °F /  -1.4 °C 17.7 °F /  -7.9 °C 30.36in /  1028hPa SW 6.0mph /  9.7km/h 11.0mph /  17.7km/h 61% 0.00in /  0mm
00:50 29.3 °F /  -1.5 °C 17.5 °F /  -8.1 °C 30.36in /  1028hPa SSW 6.0mph /  9.7km/h 12.0mph /  19.3km/h 61% 0.00in /  0mm
00:55 29.1 °F /  -1.6 °C 17.7 °F /  -7.9 °C 30.35in /  1027.7hPa SSW 5.0mph /  8km/h 14.0mph /  22.5km/h 62% 0.00in /  0mm
01:00 29.0 °F /  -1.7 °C 17.6 °F /  -8 °C 30.35in /  1027.7hPa SSW 8.0mph /  12.9km/h 14.0mph /  22.5km/h 62% 0.00in /  0mm
01:05 28.9 °F /  -1.7 °C 17.5 °F /  -8.1 °C 30.35in /  1027.7hPa SSW 8.0mph /  12.9km/h 14.0mph /  22.5km/h 62% 0.00in /  0mm
01:10 28.8 °F /  -1.8 °C 17.4 °F /  -8.1 °C 30.35in /  1027.7hPa SSW 6.0mph /  9.7km/h 14.0mph /  22.5km/h 62% 0.00in /  0mm
01:15 28.7 °F /  -1.8 °C 17.3 °F /  -8.2 °C 30.34in /  1027.3hPa SSW 7.0mph /  11.3km/h 15.0mph /  24.1km/h 62% 0.00in /  0mm
01:20 28.7 °F /  -1.8 °C 17.3 °F /  -8.2 °C 30.34in /  1027.3hPa SSW 7.0mph /  11.3km/h 16.0mph /  25.7km/h 62% 0.00in /  0mm
01:25 28.8 °F /  -1.8 °C 17.4 °F /  -8.1 °C 30.34in /  1027.3hPa SSW 8.0mph /  12.9km/h 16.0mph /  25.7km/h 62% 0.00in /  0mm
01:30 28.8 °F /  -1.8 °C 17.4 °F /  -8.1 °C 30.33in /  1027hPa South 9.0mph /  14.5km/h 18.0mph /  29km/h 62% 0.00in /  0mm
01:35 28.8 °F /  -1.8 °C 17.4 °F /  -8.1 °C 30.33in /  1027hPa SSW 8.0mph /  12.9km/h 18.0mph /  29km/h 62% 0.00in /  0mm
01:40 28.7 °F /  -1.8 °C 17.3 °F /  -8.2 °C 30.33in /  1027hPa SSW 7.0mph /  11.3km/h 16.0mph /  25.7km/h 62% 0.00in /  0mm
01:45 28.6 °F /  -1.9 °C 17.6 °F /  -8 °C 30.33in /  1027hPa SSW 7.0mph /  11.3km/h 14.0mph /  22.5km/h 63% 0.00in /  0mm
01:50 28.7 °F /  -1.8 °C 17.3 °F /  -8.2 °C 30.32in /  1026.6hPa SSW 8.0mph /  12.9km/h 19.0mph /  30.6km/h 62% 0.00in /  0mm
01:55 28.7 °F /  -1.8 °C 17.7 °F /  -7.9 °C 30.32in /  1026.6hPa SSW 8.0mph /  12.9km/h 19.0mph /  30.6km/h 63% 0.00in /  0mm
03:00 28.6 °F /  -1.9 °C 17.6 °F /  -8 °C 30.32in /  1026.6hPa SSW 11.0mph /  17.7km/h 21.0mph /  33.8km/h 63% 0.00in /  0mm
03:05 28.6 °F /  -1.9 °C 17.6 °F /  -8 °C 30.32in /  1026.6hPa SSW 9.0mph /  14.5km/h 21.0mph /  33.8km/h 63% 0.00in /  0mm
03:10 28.7 °F /  -1.8 °C 17.7 °F /  -7.9 °C 30.32in /  1026.6hPa SSW 8.0mph /  12.9km/h 19.0mph /  30.6km/h 63% 0.00in /  0mm
03:15 28.6 °F /  -1.9 °C 17.6 °F /  -8 °C 30.31in /  1026.3hPa SSW 6.0mph /  9.7km/h 15.0mph /  24.1km/h 63% 0.00in /  0mm
03:20 28.6 °F /  -1.9 °C 17.6 °F /  -8 °C 30.31in /  1026.3hPa SSW 9.0mph /  14.5km/h 18.0mph /  29km/h 63% 0.00in /  0mm
03:25 28.5 °F /  -1.9 °C 17.5 °F /  -8.1 °C 30.31in /  1026.3hPa SSW 6.0mph /  9.7km/h 18.0mph /  29km/h 63% 0.00in /  0mm
03:35 28.5 °F /  -1.9 °C 17.5 °F /  -8.1 °C 30.31in /  1026.3hPa SSW 8.0mph /  12.9km/h 19.0mph /  30.6km/h 63% 0.00in /  0mm
03:40 28.5 °F /  -1.9 °C 17.5 °F /  -8.1 °C 30.31in /  1026.3hPa SSW 9.0mph /  14.5km/h 20.0mph /  32.2km/h 63% 0.00in /  0mm
03:50 28.6 °F /  -1.9 °C 17.2 °F /  -8.2 °C 30.31in /  1026.3hPa South 6.0mph /  9.7km/h 18.0mph /  29km/h 62% 0.00in /  0mm
04:00 28.5 °F /  -1.9 °C 17.5 °F /  -8.1 °C 30.30in /  1026hPa SSW 8.0mph /  12.9km/h 14.0mph /  22.5km/h 63% 0.00in /  0mm
04:10 28.9 °F /  -1.7 °C 17.5 °F /  -8.1 °C 30.30in /  1026hPa SSW 7.0mph /  11.3km/h 21.0mph /  33.8km/h 62% 0.00in /  0mm
04:15 28.9 °F /  -1.7 °C 17.5 °F /  -8.1 °C 30.30in /  1026hPa SSW 7.0mph /  11.3km/h 21.0mph /  33.8km/h 62% 0.00in /  0mm
04:20 28.9 °F /  -1.7 °C 17.1 °F /  -8.3 °C 30.30in /  1026hPa SSW 10.0mph /  16.1km/h 18.0mph /  29km/h 61% 0.00in /  0mm
04:25 29.0 °F /  -1.7 °C 17.2 °F /  -8.2 °C 30.29in /  1025.6hPa SSW 10.0mph /  16.1km/h 21.0mph /  33.8km/h 61% 0.00in /  0mm
04:35 29.1 °F /  -1.6 °C 17.3 °F /  -8.2 °C 30.29in /  1025.6hPa SSW 9.0mph /  14.5km/h 17.0mph /  27.4km/h 61% 0.00in /  0mm
04:40 29.1 °F /  -1.6 °C 17.3 °F /  -8.2 °C 30.28in /  1025.3hPa SSW 8.0mph /  12.9km/h 17.0mph /  27.4km/h 61% 0.00in /  0mm
04:45 29.1 °F /  -1.6 °C 17.3 °F /  -8.2 °C 30.28in /  1025.3hPa SSW 8.0mph /  12.9km/h 17.0mph /  27.4km/h 61% 0.00in /  0mm
04:50 29.1 °F /  -1.6 °C 17.3 °F /  -8.2 °C 30.28in /  1025.3hPa SSW 7.0mph /  11.3km/h 16.0mph /  25.7km/h 61% 0.00in /  0mm
04:55 29.1 °F /  -1.6 °C 17.3 °F /  -8.2 °C 30.29in /  1025.6hPa SSW 10.0mph /  16.1km/h 19.0mph /  30.6km/h 61% 0.00in /  0mm
05:05 29.1 °F /  -1.6 °C 17.3 °F /  -8.2 °C 30.29in /  1025.6hPa SSW 7.0mph /  11.3km/h 17.0mph /  27.4km/h 61% 0.00in /  0mm
05:10 29.1 °F /  -1.6 °C 17.3 °F /  -8.2 °C 30.29in /  1025.6hPa SSW 8.0mph /  12.9km/h 17.0mph /  27.4km/h 61% 0.00in /  0mm
05:15 29.1 °F /  -1.6 °C 16.9 °F /  -8.4 °C 30.29in /  1025.6hPa SSW 10.0mph /  16.1km/h 18.0mph /  29km/h 60% 0.00in /  0mm
05:20 29.1 °F /  -1.6 °C 16.9 °F /  -8.4 °C 30.29in /  1025.6hPa SSW 8.0mph /  12.9km/h 18.0mph /  29km/h 60% 0.00in /  0mm
05:25 29.0 °F /  -1.7 °C 16.9 °F /  -8.4 °C 30.29in /  1025.6hPa SSW 8.0mph /  12.9km/h 18.0mph /  29km/h 60% 0.00in /  0mm
05:30 28.9 °F /  -1.7 °C 16.8 °F /  -8.4 °C 30.28in /  1025.3hPa SSW 9.0mph /  14.5km/h 18.0mph /  29km/h 60% 0.00in /  0mm
05:35 28.9 °F /  -1.7 °C 16.8 °F /  -8.4 °C 30.28in /  1025.3hPa SSW 8.0mph /  12.9km/h 17.0mph /  27.4km/h 60% 0.00in /  0mm
05:45 28.9 °F /  -1.7 °C 16.8 °F /  -8.4 °C 30.28in /  1025.3hPa SSW 8.0mph /  12.9km/h 14.0mph /  22.5km/h 60% 0.00in /  0mm
05:50 28.9 °F /  -1.7 °C 16.8 °F /  -8.4 °C 30.28in /  1025.3hPa SSW 7.0mph /  11.3km/h 15.0mph /  24.1km/h 60% 0.00in /  0mm
05:55 28.8 °F /  -1.8 °C 16.7 °F /  -8.5 °C 30.28in /  1025.3hPa SSW 10.0mph /  16.1km/h 17.0mph /  27.4km/h 60% 0.00in /  0mm
06:00 28.8 °F /  -1.8 °C 16.7 °F /  -8.5 °C 30.28in /  1025.3hPa SSW 7.0mph /  11.3km/h 17.0mph /  27.4km/h 60% 0.00in /  0mm
06:05 28.8 °F /  -1.8 °C 16.7 °F /  -8.5 °C 30.28in /  1025.3hPa SSW 9.0mph /  14.5km/h 16.0mph /  25.7km/h 60% 0.00in /  0mm
06:10 28.7 °F /  -1.8 °C 16.6 °F /  -8.6 °C 30.28in /  1025.3hPa SSW 8.0mph /  12.9km/h 16.0mph /  25.7km/h 60% 0.00in /  0mm
06:15 28.6 °F /  -1.9 °C 16.5 °F /  -8.6 °C 30.28in /  1025.3hPa SSW 6.0mph /  9.7km/h 14.0mph /  22.5km/h 60% 0.00in /  0mm
06:20 28.5 °F /  -1.9 °C 16.4 °F /  -8.7 °C 30.27in /  1024.9hPa SSW 7.0mph /  11.3km/h 14.0mph /  22.5km/h 60% 0.00in /  0mm
06:25 28.7 °F /  -1.8 °C 16.6 °F /  -8.6 °C 30.28in /  1025.3hPa SSW 7.0mph /  11.3km/h 18.0mph /  29km/h 60% 0.00in /  0mm
06:30 28.8 °F /  -1.8 °C 16.3 °F /  -8.7 °C 30.27in /  1024.9hPa SSW 7.0mph /  11.3km/h 18.0mph /  29km/h 59% 0.00in /  0mm
06:40 28.7 °F /  -1.8 °C 16.6 °F /  -8.6 °C 30.27in /  1024.9hPa SSW 7.0mph /  11.3km/h 16.0mph /  25.7km/h 60% 0.00in /  0mm
06:45 28.7 °F /  -1.8 °C 16.6 °F /  -8.6 °C 30.27in /  1024.9hPa SSW 8.0mph /  12.9km/h 15.0mph /  24.1km/h 60% 0.00in /  0mm
06:50 28.9 °F /  -1.7 °C 16.4 °F /  -8.7 °C 30.27in /  1024.9hPa SSW 10.0mph /  16.1km/h 16.0mph /  25.7km/h 59% 0.00in /  0mm
06:55 28.8 °F /  -1.8 °C 16.3 °F /  -8.7 °C 30.27in /  1024.9hPa SSW 6.0mph /  9.7km/h 16.0mph /  25.7km/h 59% 0.00in /  0mm
07:00 28.8 °F /  -1.8 °C 16.3 °F /  -8.7 °C 30.27in /  1024.9hPa SSW 5.0mph /  8km/h 16.0mph /  25.7km/h 59% 0.00in /  0mm
07:10 28.8 °F /  -1.8 °C 16.3 °F /  -8.7 °C 30.27in /  1024.9hPa SSW 8.0mph /  12.9km/h 16.0mph /  25.7km/h 59% 0.00in /  0mm
07:15 29.0 °F /  -1.7 °C 16.5 °F /  -8.6 °C 30.27in /  1024.9hPa SSW 7.0mph /  11.3km/h 16.0mph /  25.7km/h 59% 0.00in /  0mm
07:20 29.0 °F /  -1.7 °C 16.5 °F /  -8.6 °C 30.27in /  1024.9hPa SSW 8.0mph /  12.9km/h 19.0mph /  30.6km/h 59% 0.00in /  0mm
07:25 29.0 °F /  -1.7 °C 16.5 °F /  -8.6 °C 30.27in /  1024.9hPa SSW 7.0mph /  11.3km/h 19.0mph /  30.6km/h 59% 0.00in /  0mm
07:35 29.2 °F /  -1.6 °C 16.7 °F /  -8.5 °C 30.27in /  1024.9hPa SSW 8.0mph /  12.9km/h 17.0mph /  27.4km/h 59% 0.00in /  0mm
07:45 29.2 °F /  -1.6 °C 16.7 °F /  -8.5 °C 30.27in /  1024.9hPa SSW 7.0mph /  11.3km/h 17.0mph /  27.4km/h 59% 0.00in /  0mm
07:50 29.3 °F /  -1.5 °C 16.4 °F /  -8.7 °C 30.27in /  1024.9hPa SSW 9.0mph /  14.5km/h 16.0mph /  25.7km/h 58% 0.00in /  0mm
07:55 29.3 °F /  -1.5 °C 16.4 °F /  -8.7 °C 30.27in /  1024.9hPa SSW 9.0mph /  14.5km/h 17.0mph /  27.4km/h 58% 0.00in /  0mm
08:00 29.5 °F /  -1.4 °C 16.5 °F /  -8.6 °C 30.27in /  1024.9hPa SSW 8.0mph /  12.9km/h 18.0mph /  29km/h 58% 0.00in /  0mm
08:05 29.6 °F /  -1.3 °C 16.2 °F /  -8.8 °C 30.27in /  1024.9hPa SSW 8.0mph /  12.9km/h 18.0mph /  29km/h 57% 0.00in /  0mm
08:10 29.7 °F /  -1.3 °C 16.7 °F /  -8.5 °C 30.27in /  1024.9hPa SSW 8.0mph /  12.9km/h 18.0mph /  29km/h 58% 0.00in /  0mm
08:15 29.8 °F /  -1.2 °C 16.4 °F /  -8.7 °C 30.27in /  1024.9hPa SSW 9.0mph /  14.5km/h 18.0mph /  29km/h 57% 0.00in /  0mm
08:20 30.1 °F /  -1.1 °C 16.7 °F /  -8.5 °C 30.26in /  1024.6hPa SSW 10.0mph /  16.1km/h 18.0mph /  29km/h 57% 0.00in /  0mm
08:25 30.1 °F /  -1.1 °C 16.7 °F /  -8.5 °C 30.26in /  1024.6hPa SSW 7.0mph /  11.3km/h 18.0mph /  29km/h 57% 0.00in /  0mm
08:30 30.4 °F /  -0.9 °C 16.6 °F /  -8.6 °C 30.26in /  1024.6hPa SSW 9.0mph /  14.5km/h 21.0mph /  33.8km/h 56% 0.00in /  0mm
08:35 30.5 °F /  -0.8 °C 16.7 °F /  -8.5 °C 30.26in /  1024.6hPa SSW 10.0mph /  16.1km/h 21.0mph /  33.8km/h 56% 0.00in /  0mm
08:45 31.0 °F /  -0.6 °C 16.7 °F /  -8.5 °C 30.27in /  1024.9hPa SSW 9.0mph /  14.5km/h 19.0mph /  30.6km/h 55% 0.00in /  0mm
08:50 31.2 °F /  -0.4 °C 16.9 °F /  -8.4 °C 30.26in /  1024.6hPa SSW 11.0mph /  17.7km/h 19.0mph /  30.6km/h 55% 0.00in /  0mm
09:00 32.0 °F /  0 °C 17.2 °F /  -8.2 °C 30.27in /  1024.9hPa SSW 8.0mph /  12.9km/h 17.0mph /  27.4km/h 54% 0.00in /  0mm
09:05 32.4 °F /  0.2 °C 17.6 °F /  -8 °C 30.27in /  1024.9hPa SSW 10.0mph /  16.1km/h 18.0mph /  29km/h 54% 0.00in /  0mm
09:10 32.9 °F /  0.5 °C 17.6 °F /  -8 °C 30.27in /  1024.9hPa SSW 8.0mph /  12.9km/h 18.0mph /  29km/h 53% 0.00in /  0mm
09:15 33.3 °F /  0.7 °C 18.0 °F /  -7.8 °C 30.27in /  1024.9hPa SSW 11.0mph /  17.7km/h 19.0mph /  30.6km/h 53% 0.00in /  0mm
09:20 33.5 °F /  0.8 °C 17.8 °F /  -7.9 °C 30.27in /  1024.9hPa SSW 13.0mph /  20.9km/h 22.0mph /  35.4km/h 52% 0.00in /  0mm
09:25 33.7 °F /  0.9 °C 17.9 °F /  -7.8 °C 30.27in /  1024.9hPa SW 9.0mph /  14.5km/h 22.0mph /  35.4km/h 52% 0.00in /  0mm
09:30 34.4 °F /  1.3 °C 18.1 °F /  -7.7 °C 30.27in /  1024.9hPa SW 7.0mph /  11.3km/h 18.0mph /  29km/h 51% 0.00in /  0mm
09:40 34.4 °F /  1.3 °C 18.1 °F /  -7.7 °C 30.27in /  1024.9hPa SSW 10.0mph /  16.1km/h 19.0mph /  30.6km/h 51% 0.00in /  0mm
09:45 34.8 °F /  1.6 °C 18.0 °F /  -7.8 °C 30.27in /  1024.9hPa SSW 10.0mph /  16.1km/h 19.0mph /  30.6km/h 50% 0.00in /  0mm
09:55 35.4 °F /  1.9 °C 19.1 °F /  -7.2 °C 30.27in /  1024.9hPa SSW 6.0mph /  9.7km/h 19.0mph /  30.6km/h 51% 0.00in /  0mm
10:00 35.9 °F /  2.2 °C 19.1 °F /  -7.2 °C 30.27in /  1024.9hPa SSW 8.0mph /  12.9km/h 15.0mph /  24.1km/h 50% 0.00in /  0mm
10:05 36.2 °F /  2.3 °C 19.3 °F /  -7.1 °C 30.27in /  1024.9hPa SSW 9.0mph /  14.5km/h 15.0mph /  24.1km/h 50% 0.00in /  0mm
10:10 36.5 °F /  2.5 °C 19.6 °F /  -6.9 °C 30.27in /  1024.9hPa SSW 8.0mph /  12.9km/h 17.0mph /  27.4km/h 50% 0.00in /  0mm
10:15 36.6 °F /  2.6 °C 19.2 °F /  -7.1 °C 30.27in /  1024.9hPa SSW 9.0mph /  14.5km/h 18.0mph /  29km/h 49% 0.00in /  0mm
10:20 37.3 °F /  2.9 °C 20.4 °F /  -6.4 °C 30.27in /  1024.9hPa SW 7.0mph /  11.3km/h 18.0mph /  29km/h 50% 0.00in /  0mm
10:25 37.3 °F /  2.9 °C 19.4 °F /  -7 °C 30.26in /  1024.6hPa SSW 10.0mph /  16.1km/h 18.0mph /  29km/h 48% 0.00in /  0mm
10:30 37.4 °F /  3 °C 20.0 °F /  -6.7 °C 30.26in /  1024.6hPa SSW 7.0mph /  11.3km/h 18.0mph /  29km/h 49% 0.00in /  0mm
10:40 37.9 °F /  3.3 °C 20.0 °F /  -6.7 °C 30.26in /  1024.6hPa SSW 12.0mph /  19.3km/h 20.0mph /  32.2km/h 48% 0.00in /  0mm
10:45 38.2 °F /  3.4 °C 20.7 °F /  -6.3 °C 30.26in /  1024.6hPa SSW 7.0mph /  11.3km/h 20.0mph /  32.2km/h 49% 0.00in /  0mm
10:50 38.3 °F /  3.5 °C 19.8 °F /  -6.8 °C 30.25in /  1024.3hPa SSW 11.0mph /  17.7km/h 19.0mph /  30.6km/h 47% 0.00in /  0mm
10:55 38.2 °F /  3.4 °C 20.2 °F /  -6.6 °C 30.25in /  1024.3hPa SSW 10.0mph /  16.1km/h 19.0mph /  30.6km/h 48% 0.00in /  0mm
11:00 39.0 °F /  3.9 °C 21.0 °F /  -6.1 °C 30.25in /  1024.3hPa SSW 8.0mph /  12.9km/h 16.0mph /  25.7km/h 48% 0.00in /  0mm
11:05 39.3 °F /  4.1 °C 21.2 °F /  -6 °C 30.25in /  1024.3hPa SSW 8.0mph /  12.9km/h 15.0mph /  24.1km/h 48% 0.00in /  0mm
11:15 39.9 °F /  4.4 °C 20.8 °F /  -6.2 °C 30.25in /  1024.3hPa SSW 8.0mph /  12.9km/h 15.0mph /  24.1km/h 46% 0.00in /  0mm
11:20 40.4 °F /  4.7 °C 21.8 °F /  -5.7 °C 30.25in /  1024.3hPa SSW 7.0mph /  11.3km/h 13.0mph /  20.9km/h 47% 0.00in /  0mm
11:25 41.1 °F /  5.1 °C 22.9 °F /  -5.1 °C 30.25in /  1024.3hPa SSW 4.0mph /  6.4km/h 12.0mph /  19.3km/h 48% 0.00in /  0mm
11:30 40.9 °F /  4.9 °C 22.2 °F /  -5.4 °C 30.25in /  1024.3hPa SW 8.0mph /  12.9km/h 13.0mph /  20.9km/h 47% 0.00in /  0mm
11:35 41.2 °F /  5.1 °C 22.0 °F /  -5.6 °C 30.24in /  1023.9hPa SSW 7.0mph /  11.3km/h 15.0mph /  24.1km/h 46% 0.00in /  0mm
11:40 41.2 °F /  5.1 °C 22.5 °F /  -5.3 °C 30.24in /  1023.9hPa SSW 9.0mph /  14.5km/h 17.0mph /  27.4km/h 47% 0.00in /  0mm
11:45 41.4 °F /  5.2 °C 22.2 °F /  -5.4 °C 30.24in /  1023.9hPa SW 6.0mph /  9.7km/h 18.0mph /  29km/h 46% 0.00in /  0mm
11:55 42.2 °F /  5.7 °C 22.9 °F /  -5.1 °C 30.25in /  1024.3hPa SSW 5.0mph /  8km/h 12.0mph /  19.3km/h 46% 0.00in /  0mm
12:00 42.4 °F /  5.8 °C 23.1 °F /  -4.9 °C 30.24in /  1023.9hPa SSW 6.0mph /  9.7km/h 14.0mph /  22.5km/h 46% 0.00in /  0mm
12:05 42.8 °F /  6 °C 23.4 °F /  -4.8 °C 30.24in /  1023.9hPa South 6.0mph /  9.7km/h 14.0mph /  22.5km/h 46% 0.00in /  0mm
12:10 43.5 °F /  6.4 °C 23.0 °F /  -5 °C 30.24in /  1023.9hPa SSW 4.0mph /  6.4km/h 12.0mph /  19.3km/h 44% 0.00in /  0mm
12:15 43.7 °F /  6.5 °C 23.2 °F /  -4.9 °C 30.24in /  1023.9hPa SW 8.0mph /  12.9km/h 14.0mph /  22.5km/h 44% 0.00in /  0mm
12:20 44.2 °F /  6.8 °C 24.7 °F /  -4.1 °C 30.24in /  1023.9hPa SSW 4.0mph /  6.4km/h 14.0mph /  22.5km/h 46% 0.00in /  0mm
12:25 44.3 °F /  6.8 °C 23.8 °F /  -4.6 °C 30.24in /  1023.9hPa SW 7.0mph /  11.3km/h 11.0mph /  17.7km/h 44% 0.00in /  0mm
12:30 44.1 °F /  6.7 °C 24.1 °F /  -4.4 °C 30.24in /  1023.9hPa SSW 5.0mph /  8km/h 13.0mph /  20.9km/h 45% 0.00in /  0mm
12:35 44.4 °F /  6.9 °C 24.9 °F /  -3.9 °C 30.24in /  1023.9hPa SSW 7.0mph /  11.3km/h 13.0mph /  20.9km/h 46% 0.00in /  0mm
12:40 44.6 °F /  7 °C 23.5 °F /  -4.7 °C 30.24in /  1023.9hPa SSW 7.0mph /  11.3km/h 12.0mph /  19.3km/h 43% 0.00in /  0mm
12:45 44.7 °F /  7.1 °C 24.1 °F /  -4.4 °C 30.23in /  1023.6hPa SSW 6.0mph /  9.7km/h 12.0mph /  19.3km/h 44% 0.00in /  0mm
12:50 45.4 °F /  7.4 °C 24.8 °F /  -4 °C 30.23in /  1023.6hPa South 5.0mph /  8km/h 12.0mph /  19.3km/h 44% 0.00in /  0mm
12:55 45.8 °F /  7.7 °C 24.6 °F /  -4.1 °C 30.23in /  1023.6hPa SW 7.0mph /  11.3km/h 12.0mph /  19.3km/h 43% 0.00in /  0mm
13:00 45.6 °F /  7.6 °C 24.9 °F /  -3.9 °C 30.23in /  1023.6hPa SSW 5.0mph /  8km/h 13.0mph /  20.9km/h 44% 0.00in /  0mm
13:10 46.3 °F /  7.9 °C 25.0 °F /  -3.9 °C 30.22in /  1023.2hPa South 7.0mph /  11.3km/h 12.0mph /  19.3km/h 43% 0.00in /  0mm
13:15 46.3 °F /  7.9 °C 25.6 °F /  -3.6 °C 30.22in /  1023.2hPa SSW 7.0mph /  11.3km/h 16.0mph /  25.7km/h 44% 0.00in /  0mm
13:20 46.4 °F /  8 °C 25.7 °F /  -3.5 °C 30.22in /  1023.2hPa SSW 8.0mph /  12.9km/h 16.0mph /  25.7km/h 44% 0.00in /  0mm
13:30 46.3 °F /  7.9 °C 25.6 °F /  -3.6 °C 30.22in /  1023.2hPa SW 7.0mph /  11.3km/h 14.0mph /  22.5km/h 44% 0.00in /  0mm
13:35 46.7 °F /  8.2 °C 25.9 °F /  -3.4 °C 30.22in /  1023.2hPa SSW 7.0mph /  11.3km/h 13.0mph /  20.9km/h 44% 0.00in /  0mm
13:45 47.8 °F /  8.8 °C 26.4 °F /  -3.1 °C 30.21in /  1022.9hPa SSW 6.0mph /  9.7km/h 13.0mph /  20.9km/h 43% 0.00in /  0mm
13:50 47.9 °F /  8.8 °C 27.0 °F /  -2.8 °C 30.21in /  1022.9hPa SSW 6.0mph /  9.7km/h 12.0mph /  19.3km/h 44% 0.00in /  0mm
13:55 48.0 °F /  8.9 °C 26.0 °F /  -3.3 °C 30.20in /  1022.6hPa SSW 8.0mph /  12.9km/h 14.0mph /  22.5km/h 42% 0.00in /  0mm
14:00 47.6 °F /  8.7 °C 26.2 °F /  -3.2 °C 30.20in /  1022.6hPa SW 9.0mph /  14.5km/h 14.0mph /  22.5km/h 43% 0.00in /  0mm
14:05 47.5 °F /  8.6 °C 26.1 °F /  -3.3 °C 30.19in /  1022.2hPa SW 8.0mph /  12.9km/h 14.0mph /  22.5km/h 43% 0.00in /  0mm
14:10 48.0 °F /  8.9 °C 27.1 °F /  -2.7 °C 30.20in /  1022.6hPa SSW 5.0mph /  8km/h 14.0mph /  22.5km/h 44% 0.00in /  0mm
14:15 48.3 °F /  9.1 °C 26.8 °F /  -2.9 °C 30.19in /  1022.2hPa SSW 9.0mph /  14.5km/h 14.0mph /  22.5km/h 43% 0.00in /  0mm
14:20 48.6 °F /  9.2 °C 27.7 °F /  -2.4 °C 30.19in /  1022.2hPa South 4.0mph /  6.4km/h 14.0mph /  22.5km/h 44% 0.00in /  0mm
14:25 49.1 °F /  9.5 °C 27.6 °F /  -2.4 °C 30.19in /  1022.2hPa SSW 7.0mph /  11.3km/h 13.0mph /  20.9km/h 43% 0.00in /  0mm
14:30 48.9 °F /  9.4 °C 27.4 °F /  -2.6 °C 30.19in /  1022.2hPa SW 7.0mph /  11.3km/h 13.0mph /  20.9km/h 43% 0.00in /  0mm
14:35 48.8 °F /  9.3 °C 26.7 °F /  -2.9 °C 30.18in /  1021.9hPa SSW 7.0mph /  11.3km/h 13.0mph /  20.9km/h 42% 0.00in /  0mm
14:45 49.6 °F /  9.8 °C 28.0 °F /  -2.2 °C 30.18in /  1021.9hPa SW 6.0mph /  9.7km/h 12.0mph /  19.3km/h 43% 0.00in /  0mm
14:50 49.7 °F /  9.8 °C 28.1 °F /  -2.2 °C 30.18in /  1021.9hPa SW 8.0mph /  12.9km/h 12.0mph /  19.3km/h 43% 0.00in /  0mm
14:55 49.8 °F /  9.9 °C 27.6 °F /  -2.4 °C 30.18in /  1021.9hPa SW 6.0mph /  9.7km/h 15.0mph /  24.1km/h 42% 0.00in /  0mm
15:00 50.2 °F /  10.1 °C 28.0 °F /  -2.2 °C 30.18in /  1021.9hPa SSW 6.0mph /  9.7km/h 15.0mph /  24.1km/h 42% 0.00in /  0mm
15:05 50.6 °F /  10.3 °C 28.4 °F /  -2 °C 30.18in /  1021.9hPa WSW 6.0mph /  9.7km/h 14.0mph /  22.5km/h 42% 0.00in /  0mm
15:10 50.9 °F /  10.5 °C 28.6 °F /  -1.9 °C 30.18in /  1021.9hPa South 6.0mph /  9.7km/h 12.0mph /  19.3km/h 42% 0.00in /  0mm
15:15 51.1 °F /  10.6 °C 28.8 °F /  -1.8 °C 30.18in /  1021.9hPa SSW 7.0mph /  11.3km/h 12.0mph /  19.3km/h 42% 0.00in /  0mm
15:20 51.0 °F /  10.6 °C 28.7 °F /  -1.8 °C 30.18in /  1021.9hPa SW 6.0mph /  9.7km/h 15.0mph /  24.1km/h 42% 0.00in /  0mm
15:25 50.8 °F /  10.4 °C 27.3 °F /  -2.6 °C 30.18in /  1021.9hPa SSW 10.0mph /  16.1km/h 17.0mph /  27.4km/h 40% 0.00in /  0mm
15:30 50.7 °F /  10.4 °C 27.9 °F /  -2.3 °C 30.18in /  1021.9hPa SSW 6.0mph /  9.7km/h 17.0mph /  27.4km/h 41% 0.00in /  0mm
15:40 51.6 °F /  10.9 °C 29.3 °F /  -1.5 °C 30.17in /  1021.6hPa SSW 4.0mph /  6.4km/h 12.0mph /  19.3km/h 42% 0.00in /  0mm
15:50 51.6 °F /  10.9 °C 28.7 °F /  -1.8 °C 30.17in /  1021.6hPa SSW 6.0mph /  9.7km/h 15.0mph /  24.1km/h 41% 0.00in /  0mm
15:55 52.0 °F /  11.1 °C 28.4 °F /  -2 °C 30.17in /  1021.6hPa SW 6.0mph /  9.7km/h 14.0mph /  22.5km/h 40% 0.00in /  0mm
16:00 52.0 °F /  11.1 °C 29.0 °F /  -1.7 °C 30.17in /  1021.6hPa SW 6.0mph /  9.7km/h 14.0mph /  22.5km/h 41% 0.00in /  0mm
16:05 52.0 °F /  11.1 °C 29.0 °F /  -1.7 °C 30.17in /  1021.6hPa SSW 6.0mph /  9.7km/h 15.0mph /  24.1km/h 41% 0.00in /  0mm
16:10 52.1 °F /  11.2 °C 28.5 °F /  -1.9 °C 30.17in /  1021.6hPa SSW 7.0mph /  11.3km/h 15.0mph /  24.1km/h 40% 0.00in /  0mm
16:15 52.1 °F /  11.2 °C 29.1 °F /  -1.6 °C 30.17in /  1021.6hPa SSW 6.0mph /  9.7km/h 13.0mph /  20.9km/h 41% 0.00in /  0mm
16:20 52.4 °F /  11.3 °C 28.8 °F /  -1.8 °C 30.17in /  1021.6hPa SW 6.0mph /  9.7km/h 13.0mph /  20.9km/h 40% 0.00in /  0mm
16:25 52.8 °F /  11.6 °C 29.8 °F /  -1.2 °C 30.16in /  1021.2hPa SSW 5.0mph /  8km/h 11.0mph /  17.7km/h 41% 0.00in /  0mm
16:30 52.5 °F /  11.4 °C 28.9 °F /  -1.7 °C 30.16in /  1021.2hPa SW 7.0mph /  11.3km/h 14.0mph /  22.5km/h 40% 0.00in /  0mm
16:35 52.7 °F /  11.5 °C 29.1 °F /  -1.6 °C 30.16in /  1021.2hPa SSW 6.0mph /  9.7km/h 14.0mph /  22.5km/h 40% 0.00in /  0mm
16:40 52.7 °F /  11.5 °C 28.4 °F /  -2 °C 30.16in /  1021.2hPa SSW 6.0mph /  9.7km/h 13.0mph /  20.9km/h 39% 0.00in /  0mm
16:50 52.6 °F /  11.4 °C 29.0 °F /  -1.7 °C 30.16in /  1021.2hPa SSW 5.0mph /  8km/h 13.0mph /  20.9km/h 40% 0.00in /  0mm
16:55 52.7 °F /  11.5 °C 29.1 °F /  -1.6 °C 30.16in /  1021.2hPa SSW 7.0mph /  11.3km/h 13.0mph /  20.9km/h 40% 0.00in /  0mm
17:05 52.6 °F /  11.4 °C 28.3 °F /  -2.1 °C 30.16in /  1021.2hPa SSW 7.0mph /  11.3km/h 14.0mph /  22.5km/h 39% 0.00in /  0mm
17:10 52.6 °F /  11.4 °C 28.3 °F /  -2.1 °C 30.16in /  1021.2hPa SSW 9.0mph /  14.5km/h 15.0mph /  24.1km/h 39% 0.00in /  0mm
17:20 52.4 °F /  11.3 °C 28.8 °F /  -1.8 °C 30.15in /  1020.9hPa SSW 7.0mph /  11.3km/h 14.0mph /  22.5km/h 40% 0.00in /  0mm
17:25 52.4 °F /  11.3 °C 28.2 °F /  -2.1 °C 30.16in /  1021.2hPa SSW 7.0mph /  11.3km/h 13.0mph /  20.9km/h 39% 0.00in /  0mm
17:30 52.3 °F /  11.3 °C 28.1 °F /  -2.2 °C 30.16in /  1021.2hPa SSW 6.0mph /  9.7km/h 14.0mph /  22.5km/h 39% 0.00in /  0mm
17:35 52.2 °F /  11.2 °C 28.0 °F /  -2.2 °C 30.16in /  1021.2hPa SSW 6.0mph /  9.7km/h 14.0mph /  22.5km/h 39% 0.00in /  0mm
17:40 52.2 °F /  11.2 °C 28.0 °F /  -2.2 °C 30.15in /  1020.9hPa SSW 5.0mph /  8km/h 11.0mph /  17.7km/h 39% 0.00in /  0mm
17:50 52.2 °F /  11.2 °C 28.6 °F /  -1.9 °C 30.15in /  1020.9hPa SSW 7.0mph /  11.3km/h 10.0mph /  16.1km/h 40% 0.00in /  0mm
18:00 51.9 °F /  11.1 °C 28.3 °F /  -2.1 °C 30.15in /  1020.9hPa SSW 4.0mph /  6.4km/h 9.0mph /  14.5km/h 40% 0.00in /  0mm
18:05 51.8 °F /  11 °C 28.2 °F /  -2.1 °C 30.15in /  1020.9hPa SSW 3.0mph /  4.8km/h 8.0mph /  12.9km/h 40% 0.00in /  0mm
18:10 51.5 °F /  10.8 °C 28.0 °F /  -2.2 °C 30.15in /  1020.9hPa SSW 4.0mph /  6.4km/h 7.0mph /  11.3km/h 40% 0.00in /  0mm
18:15 51.2 °F /  10.7 °C 28.3 °F /  -2.1 °C 30.15in /  1020.9hPa SSW 5.0mph /  8km/h 11.0mph /  17.7km/h 41% 0.00in /  0mm
18:25 50.5 °F /  10.3 °C 28.3 °F /  -2.1 °C 30.15in /  1020.9hPa SSW 4.0mph /  6.4km/h 8.0mph /  12.9km/h 42% 0.00in /  0mm
18:35 49.5 °F /  9.7 °C 27.9 °F /  -2.3 °C 30.15in /  1020.9hPa SSW 4.0mph /  6.4km/h 9.0mph /  14.5km/h 43% 0.00in /  0mm
18:40 48.9 °F /  9.4 °C 27.9 °F /  -2.3 °C 30.15in /  1020.9hPa SSW 4.0mph /  6.4km/h 9.0mph /  14.5km/h 44% 0.00in /  0mm
18:45 48.5 °F /  9.2 °C 27.6 °F /  -2.4 °C 30.15in /  1020.9hPa SSW 3.0mph /  4.8km/h 9.0mph /  14.5km/h 44% 0.00in /  0mm
18:50 48.1 °F /  8.9 °C 27.2 °F /  -2.7 °C 30.15in /  1020.9hPa SSW 5.0mph /  8km/h 8.0mph /  12.9km/h 44% 0.00in /  0mm
18:55 47.8 °F /  8.8 °C 27.5 °F /  -2.5 °C 30.15in /  1020.9hPa SSW 4.0mph /  6.4km/h 7.0mph /  11.3km/h 45% 0.00in /  0mm
19:00 47.6 °F /  8.7 °C 27.3 °F /  -2.6 °C 30.15in /  1020.9hPa SSW 4.0mph /  6.4km/h 7.0mph /  11.3km/h 45% 0.00in /  0mm
19:05 47.3 °F /  8.5 °C 27.6 °F /  -2.4 °C 30.15in /  1020.9hPa SSW 3.0mph /  4.8km/h 7.0mph /  11.3km/h 46% 0.00in /  0mm
19:10 46.9 °F /  8.3 °C 27.2 °F /  -2.7 °C 30.16in /  1021.2hPa SSW 4.0mph /  6.4km/h 7.0mph /  11.3km/h 46% 0.00in /  0mm
19:20 46.5 °F /  8.1 °C 27.4 °F /  -2.6 °C 30.16in /  1021.2hPa SSW 4.0mph /  6.4km/h 8.0mph /  12.9km/h 47% 0.00in /  0mm
19:25 46.5 °F /  8.1 °C 27.4 °F /  -2.6 °C 30.16in /  1021.2hPa SSW 4.0mph /  6.4km/h 10.0mph /  16.1km/h 47% 0.00in /  0mm
19:30 46.6 °F /  8.1 °C 27.4 °F /  -2.6 °C 30.16in /  1021.2hPa SSW 4.0mph /  6.4km/h 10.0mph /  16.1km/h 47% 0.00in /  0mm
19:35 46.5 °F /  8.1 °C 27.4 °F /  -2.6 °C 30.16in /  1021.2hPa South 4.0mph /  6.4km/h 7.0mph /  11.3km/h 47% 0.00in /  0mm
19:45 46.1 °F /  7.8 °C 27.5 °F /  -2.5 °C 30.16in /  1021.2hPa SW 3.0mph /  4.8km/h 7.0mph /  11.3km/h 48% 0.00in /  0mm
19:55 45.5 °F /  7.5 °C 27.4 °F /  -2.6 °C 30.17in /  1021.6hPa SW 4.0mph /  6.4km/h 7.0mph /  11.3km/h 49% 0.00in /  0mm
20:00 45.4 °F /  7.4 °C 27.4 °F /  -2.6 °C 30.17in /  1021.6hPa SW 4.0mph /  6.4km/h 7.0mph /  11.3km/h 49% 0.00in /  0mm
20:05 45.3 °F /  7.4 °C 27.3 °F /  -2.6 °C 30.16in /  1021.2hPa SSW 3.0mph /  4.8km/h 7.0mph /  11.3km/h 49% 0.00in /  0mm
20:10 45.1 °F /  7.3 °C 27.6 °F /  -2.4 °C 30.17in /  1021.6hPa SSW 5.0mph /  8km/h 7.0mph /  11.3km/h 50% 0.00in /  0mm
20:15 44.8 °F /  7.1 °C 27.3 °F /  -2.6 °C 30.17in /  1021.6hPa SSW 3.0mph /  4.8km/h 6.0mph /  9.7km/h 50% 0.00in /  0mm
20:20 44.6 °F /  7 °C 27.1 °F /  -2.7 °C 30.17in /  1021.6hPa SSW 3.0mph /  4.8km/h 5.0mph /  8km/h 50% 0.00in /  0mm
20:25 44.2 °F /  6.8 °C 27.2 °F /  -2.7 °C 30.17in /  1021.6hPa SSW 2.0mph /  3.2km/h 4.0mph /  6.4km/h 51% 0.00in /  0mm
20:30 43.6 °F /  6.4 °C 27.1 °F /  -2.7 °C 30.17in /  1021.6hPa SSW 2.0mph /  3.2km/h 4.0mph /  6.4km/h 52% 0.00in /  0mm
20:40 42.7 °F /  5.9 °C 27.2 °F /  -2.7 °C 30.17in /  1021.6hPa SSW 3.0mph /  4.8km/h 4.0mph /  6.4km/h 54% 0.00in /  0mm
20:45 43.0 °F /  6.1 °C 27.0 °F /  -2.8 °C 30.17in /  1021.6hPa SSW 3.0mph /  4.8km/h 5.0mph /  8km/h 53% 0.00in /  0mm
20:50 43.0 °F /  6.1 °C 27.5 °F /  -2.5 °C 30.17in /  1021.6hPa SSW 4.0mph /  6.4km/h 6.0mph /  9.7km/h 54% 0.00in /  0mm
21:00 42.3 °F /  5.7 °C 27.3 °F /  -2.6 °C 30.17in /  1021.6hPa SSW 4.0mph /  6.4km/h 6.0mph /  9.7km/h 55% 0.00in /  0mm
21:05 42.3 °F /  5.7 °C 27.7 °F /  -2.4 °C 30.17in /  1021.6hPa SSW 4.0mph /  6.4km/h 6.0mph /  9.7km/h 56% 0.00in /  0mm
21:10 42.6 °F /  5.9 °C 28.0 °F /  -2.2 °C 30.17in /  1021.6hPa SSW 5.0mph /  8km/h 6.0mph /  9.7km/h 56% 0.00in /  0mm
21:15 42.9 °F /  6.1 °C 27.8 °F /  -2.3 °C 30.17in /  1021.6hPa SSW 4.0mph /  6.4km/h 6.0mph /  9.7km/h 55% 0.00in /  0mm
21:25 43.6 °F /  6.4 °C 28.1 °F /  -2.2 °C 30.18in /  1021.9hPa SSW 4.0mph /  6.4km/h 7.0mph /  11.3km/h 54% 0.00in /  0mm
21:30 44.3 °F /  6.8 °C 28.2 °F /  -2.1 °C 30.18in /  1021.9hPa SSW 4.0mph /  6.4km/h 7.0mph /  11.3km/h 53% 0.00in /  0mm
21:35 44.3 °F /  6.8 °C 28.2 °F /  -2.1 °C 30.18in /  1021.9hPa SSW 4.0mph /  6.4km/h 7.0mph /  11.3km/h 53% 0.00in /  0mm
21:40 44.0 °F /  6.7 °C 28.0 °F /  -2.2 °C 30.18in /  1021.9hPa SSW 4.0mph /  6.4km/h 7.0mph /  11.3km/h 53% 0.00in /  0mm
21:45 44.1 °F /  6.7 °C 28.1 °F /  -2.2 °C 30.18in /  1021.9hPa SSW 4.0mph /  6.4km/h 8.0mph /  12.9km/h 53% 0.00in /  0mm
21:50 43.7 °F /  6.5 °C 28.1 °F /  -2.2 °C 30.18in /  1021.9hPa SSW 3.0mph /  4.8km/h 8.0mph /  12.9km/h 54% 0.00in /  0mm
21:55 43.3 °F /  6.3 °C 28.2 °F /  -2.1 °C 30.18in /  1021.9hPa SSW 4.0mph /  6.4km/h 5.0mph /  8km/h 55% 0.00in /  0mm
22:00 43.5 °F /  6.4 °C 28.4 °F /  -2 °C 30.18in /  1021.9hPa SSW 3.0mph /  4.8km/h 6.0mph /  9.7km/h 55% 0.00in /  0mm
22:05 43.5 °F /  6.4 °C 28.0 °F /  -2.2 °C 30.18in /  1021.9hPa SSW 3.0mph /  4.8km/h 6.0mph /  9.7km/h 54% 0.00in /  0mm
22:10 43.7 °F /  6.5 °C 28.1 °F /  -2.2 °C 30.18in /  1021.9hPa SSW 4.0mph /  6.4km/h 6.0mph /  9.7km/h 54% 0.00in /  0mm
22:15 43.7 °F /  6.5 °C 28.1 °F /  -2.2 °C 30.18in /  1021.9hPa SW 5.0mph /  8km/h 10.0mph /  16.1km/h 54% 0.00in /  0mm
22:20 44.2 °F /  6.8 °C 28.6 °F /  -1.9 °C 30.18in /  1021.9hPa SW 4.0mph /  6.4km/h 10.0mph /  16.1km/h 54% 0.00in /  0mm
22:25 45.0 °F /  7.2 °C 28.4 °F /  -2 °C 30.18in /  1021.9hPa WSW 5.0mph /  8km/h 13.0mph /  20.9km/h 52% 0.00in /  0mm
22:35 46.4 °F /  8 °C 28.8 °F /  -1.8 °C 30.19in /  1022.2hPa WSW 5.0mph /  8km/h 10.0mph /  16.1km/h 50% 0.00in /  0mm
22:40 47.6 °F /  8.7 °C 29.4 °F /  -1.4 °C 30.19in /  1022.2hPa West 5.0mph /  8km/h 15.0mph /  24.1km/h 49% 0.00in /  0mm
22:50 47.8 °F /  8.8 °C 28.5 °F /  -1.9 °C 30.18in /  1021.9hPa WSW 8.0mph /  12.9km/h 14.0mph /  22.5km/h 47% 0.00in /  0mm
23:00 47.6 °F /  8.7 °C 28.4 °F /  -2 °C 30.18in /  1021.9hPa WSW 6.0mph /  9.7km/h 11.0mph /  17.7km/h 47% 0.00in /  0mm
23:05 47.2 °F /  8.4 °C 28.5 °F /  -1.9 °C 30.18in /  1021.9hPa WSW 5.0mph /  8km/h 11.0mph /  17.7km/h 48% 0.00in /  0mm
23:10 47.2 °F /  8.4 °C 28.5 °F /  -1.9 °C 30.18in /  1021.9hPa WSW 6.0mph /  9.7km/h 13.0mph /  20.9km/h 48% 0.00in /  0mm
23:15 48.0 °F /  8.9 °C 28.2 °F /  -2.1 °C 30.18in /  1021.9hPa WSW 5.0mph /  8km/h 14.0mph /  22.5km/h 46% 0.00in /  0mm
23:25 48.2 °F /  9 °C 27.9 °F /  -2.3 °C 30.18in /  1021.9hPa WSW 8.0mph /  12.9km/h 13.0mph /  20.9km/h 45% 0.00in /  0mm
23:30 48.7 °F /  9.3 °C 28.3 °F /  -2.1 °C 30.18in /  1021.9hPa WSW 6.0mph /  9.7km/h 13.0mph /  20.9km/h 45% 0.00in /  0mm
23:35 48.5 °F /  9.2 °C 27.6 °F /  -2.4 °C 30.18in /  1021.9hPa WSW 6.0mph /  9.7km/h 13.0mph /  20.9km/h 44% 0.00in /  0mm
23:40 48.4 °F /  9.1 °C 27.5 °F /  -2.5 °C 30.18in /  1021.9hPa WSW 5.0mph /  8km/h 12.0mph /  19.3km/h 44% 0.00in /  0mm
23:50 48.5 °F /  9.2 °C 28.1 °F /  -2.2 °C 30.18in /  1021.9hPa WSW 5.0mph /  8km/h 13.0mph /  20.9km/h 45% 0.00in /  0mm
Westford Weather
Compliments of Weather Underground

 
 
Current Radar Loop:

Copyright © WestfordWeather.net 2007-2014. All rights reserved.